Time;durP1;ratioP1;P1;durP2;ratioP2;P2;SDS_P1;SDS_P2;PMS_P1;PMS_P2;Temp;Humidity;BMP_temperature;BMP_pressure;BME280_temperature;BME280_humidity;BME280_pressure;Samples;Min_cycle;Max_cycle;Signal;HPM_P1;HPM_P2
2024/04/11 00:00:55;;;;;;;9.10;5.30;;;7.50;99.90;;;7.44;72.21;100345.22;5369184;26;20474;-67
2024/04/11 00:03:20;;;;;;;8.40;5.53;;;7.50;99.90;;;7.38;72.44;100350.69;5373432;26;20255;-72
2024/04/11 00:05:46;;;;;;;8.73;5.60;;;7.50;99.90;;;7.39;72.37;100353.22;5364370;26;20259;-72
2024/04/11 00:08:12;;;;;;;8.03;5.40;;;7.40;99.90;;;7.40;72.11;100352.31;5349680;26;20603;-74
2024/04/11 00:10:38;;;;;;;8.33;5.40;;;7.40;99.90;;;7.42;71.86;100347.03;5372648;26;20296;-74
2024/04/11 00:13:03;;;;;;;9.80;5.77;;;7.40;99.90;;;7.42;71.46;100347.03;5348674;26;20794;-73
2024/04/11 00:15:29;;;;;;;10.33;5.90;;;7.30;99.90;;;7.32;71.84;100345.72;5368627;26;20285;-74
2024/04/11 00:17:55;;;;;;;9.43;6.07;;;7.40;99.90;;;7.25;72.76;100345.13;5367590;26;20541;-72
2024/04/11 00:20:22;;;;;;;10.10;6.47;;;7.40;99.90;;;7.14;73.11;100334.25;5365865;26;20297;-71
2024/04/11 00:22:50;;;;;;;8.50;6.40;;;7.30;99.90;;;7.11;73.54;100342.22;5365929;26;20474;-73
2024/04/11 00:25:16;;;;;;;9.00;6.10;;;7.30;99.90;;;7.12;73.13;100338.69;5373427;26;20480;-71
2024/04/11 00:27:42;;;;;;;9.27;6.10;;;7.20;99.90;;;7.16;72.80;100333.28;5376281;26;20591;-73
2024/04/11 00:30:08;;;;;;;8.70;6.50;;;7.20;99.90;;;7.06;72.92;100329.34;5401126;26;20247;-73
2024/04/11 00:32:33;;;;;;;8.83;5.77;;;7.20;99.90;;;7.02;73.56;100337.34;5374357;26;20355;-72
2024/04/11 00:35:04;;;;;;;11.50;6.60;;;7.10;99.90;;;7.04;73.92;100340.78;5376091;26;20476;-72
2024/04/11 00:37:31;;;;;;;7.50;5.87;;;7.10;99.90;;;7.04;73.35;100331.16;5375992;26;20241;-72
2024/04/11 00:39:58;;;;;;;7.73;5.77;;;7.10;99.90;;;7.08;72.85;100337.97;5377017;26;20477;-72
2024/04/11 00:42:24;;;;;;;10.63;6.60;;;7.00;99.90;;;7.06;72.89;100337.19;5369720;26;20482;-72
2024/04/11 00:44:49;;;;;;;8.73;5.63;;;7.00;99.90;;;7.08;72.50;100334.50;5378633;26;20582;-74
2024/04/11 00:47:15;;;;;;;10.43;5.90;;;7.00;99.90;;;7.07;72.55;100340.66;5369887;26;20642;-73
2024/04/11 00:49:46;;;;;;;8.40;5.60;;;7.00;99.90;;;7.00;72.52;100333.94;5367930;26;20791;-72
2024/04/11 00:52:13;;;;;;;13.63;5.90;;;7.00;99.90;;;6.86;73.19;100327.53;5377953;26;20726;-73
2024/04/11 00:54:39;;;;;;;7.27;5.13;;;7.00;99.90;;;6.88;73.09;100328.31;5362964;26;20534;-71
2024/04/11 00:57:08;;;;;;;9.93;5.50;;;6.90;99.90;;;6.90;73.01;100323.03;5361882;26;20487;-73
2024/04/11 00:59:38;;;;;;;10.17;5.20;;;6.90;99.90;;;6.91;72.83;100320.38;5375003;26;20475;-71
2024/04/11 01:02:05;;;;;;;8.97;5.10;;;6.90;99.90;;;6.85;72.10;100324.97;5379033;26;20641;-74
2024/04/11 01:04:35;;;;;;;10.27;5.40;;;6.90;99.90;;;6.77;72.30;100322.66;5373192;26;20468;-73
2024/04/11 01:07:10;;;;;;;6.83;4.33;;;6.80;99.90;;;6.75;72.49;100329.72;5341770;26;20471;-71
2024/04/11 01:09:45;;;;;;;10.47;5.07;;;6.80;99.90;;;6.64;72.94;100318.84;5371866;26;20480;-73
2024/04/11 01:12:13;;;;;;;8.03;4.90;;;6.80;99.90;;;6.63;72.64;100317.16;5374909;26;20946;-74
2024/04/11 01:14:43;;;;;;;7.37;4.83;;;7.60;99.90;;;6.62;72.85;100312.81;5373258;26;20540;-72
2024/04/11 01:17:13;;;;;;;10.23;4.90;;;6.70;99.90;;;6.56;73.10;100320.88;5377908;26;20490;-73
2024/04/11 01:19:44;;;;;;;7.90;4.90;;;6.70;99.90;;;6.55;73.33;100322.66;5350211;26;20495;-71
2024/04/11 01:22:10;;;;;;;9.83;5.27;;;6.60;99.90;;;6.57;73.13;100322.59;5371674;26;20482;-74
2024/04/11 01:24:40;;;;;;;9.30;4.67;;;6.60;99.90;;;6.61;73.02;100318.97;5350278;26;20481;-73
2024/04/11 01:27:12;;;;;;;7.67;4.90;;;6.60;99.90;;;6.62;72.76;100328.47;5378064;26;22048;-72
2024/04/11 01:29:38;;;;;;;8.07;4.77;;;6.60;99.90;;;6.53;72.60;100321.88;5381150;26;20468;-71
2024/04/11 01:32:05;;;;;;;7.97;5.00;;;6.60;99.90;;;6.46;72.93;100317.78;5362699;26;20522;-74
2024/04/11 01:34:32;;;;;;;8.17;5.40;;;6.60;99.90;;;6.45;72.72;100324.75;5379528;26;20861;-72
2024/04/11 01:36:58;;;;;;;7.83;5.00;;;6.50;99.90;;;6.44;72.46;100324.84;5337496;26;20520;-73
2024/04/11 01:39:24;;;;;;;7.20;4.90;;;6.50;99.90;;;6.42;72.75;100324.88;5348893;26;20548;-73
2024/04/11 01:41:50;;;;;;;8.33;4.80;;;6.50;99.90;;;6.40;72.95;100325.84;5380994;26;20471;-73
2024/04/11 01:44:16;;;;;;;9.90;5.30;;;6.40;99.90;;;6.33;72.77;100322.63;5381218;26;20323;-73
2024/04/11 01:46:42;;;;;;;8.47;5.07;;;6.40;99.90;;;6.30;72.92;100332.31;5373886;26;20487;-72
2024/04/11 01:49:09;;;;;;;8.77;5.30;;;6.40;99.90;;;6.31;73.14;100319.22;5375425;26;20247;-72
2024/04/11 01:51:35;;;;;;;6.83;5.03;;;6.40;99.90;;;6.31;72.78;100319.22;5376778;26;21766;-73
2024/04/11 01:54:05;;;;;;;6.63;5.40;;;6.30;99.90;;;6.21;73.26;100323.94;5370071;26;20531;-72
2024/04/11 01:56:34;;;;;;;8.20;5.60;;;6.40;99.90;;;6.18;73.32;100317.97;5360405;26;21107;-71
2024/04/11 01:59:04;;;;;;;9.83;6.43;;;6.30;99.90;;;6.16;73.60;100322.41;5347135;26;20519;-69
2024/04/11 02:01:34;;;;;;;11.23;6.10;;;6.30;99.90;;;6.15;73.87;100318.13;5367624;26;20474;-72
2024/04/11 02:04:09;;;;;;;7.20;5.57;;;6.30;99.90;;;6.15;73.75;100320.72;5385303;26;20546;-72
2024/04/11 02:06:36;;;;;;;7.07;5.33;;;6.60;99.90;;;6.16;73.64;100319.81;5355151;26;20468;-72
2024/04/11 02:09:05;;;;;;;10.67;5.70;;;6.20;99.90;;;6.14;73.68;100327.66;5381441;26;20473;-73
2024/04/11 02:11:33;;;;;;;11.67;5.60;;;6.20;99.90;;;6.08;73.64;100327.91;5341020;26;20474;-71
2024/04/11 02:14:00;;;;;;;9.00;5.90;;;6.20;99.90;;;6.00;73.92;100335.16;5370903;26;20498;-71
2024/04/11 02:16:29;;;;;;;6.73;5.10;;;6.10;99.90;;;6.02;73.77;100339.44;5382148;26;20517;-73
2024/04/11 02:18:55;;;;;;;6.10;4.60;;;6.10;99.90;;;6.01;73.96;100335.09;5389360;26;21108;-72
2024/04/11 02:21:21;;;;;;;10.53;5.27;;;6.10;99.90;;;6.02;73.65;100341.16;5371734;26;20479;-72
2024/04/11 02:23:47;;;;;;;7.33;5.20;;;6.10;99.90;;;6.02;73.61;100344.66;5382984;26;21040;-74
2024/04/11 02:26:13;;;;;;;6.20;4.80;;;6.00;99.90;;;5.98;73.56;100353.47;5384897;26;20521;-70
2024/04/11 02:28:39;;;;;;;8.77;5.70;;;6.00;99.90;;;5.95;73.81;100350.97;5340386;26;20292;-71
2024/04/11 02:31:05;;;;;;;6.37;4.50;;;6.00;99.90;;;5.99;73.39;100357.78;5349728;26;20475;-71
2024/04/11 02:33:35;;;;;;;9.00;4.77;;;6.00;99.90;;;5.95;73.31;100358.78;5371224;26;20527;-73
2024/04/11 02:36:03;;;;;;;8.10;4.83;;;6.00;99.90;;;5.90;73.46;100365.06;5358432;26;20595;-73
2024/04/11 02:38:30;;;;;;;6.03;4.40;;;5.90;99.90;;;5.87;73.11;100365.19;5367496;26;20718;-72
2024/04/11 02:40:56;;;;;;;7.30;4.87;;;5.90;99.90;;;5.90;73.50;100370.28;5374852;26;20807;-73
2024/04/11 02:43:22;;;;;;;9.60;4.90;;;5.90;99.90;;;5.93;73.10;100367.59;5366960;26;20515;-71
2024/04/11 02:45:49;;;;;;;7.13;4.60;;;5.90;99.90;;;5.94;73.11;100377.97;5365382;26;20249;-74
2024/04/11 02:48:15;;;;;;;5.80;4.37;;;5.90;99.90;;;5.94;73.05;100377.13;5376563;26;20466;-72
2024/04/11 02:50:41;;;;;;;6.57;4.60;;;5.90;99.90;;;5.94;72.99;100385.78;5372989;26;20587;-73
2024/04/11 02:53:09;;;;;;;8.43;4.80;;;5.90;99.90;;;5.93;72.75;100389.31;5373798;26;20284;-74
2024/04/11 02:55:35;;;;;;;6.60;4.67;;;5.90;99.90;;;5.92;72.81;100384.09;5366822;26;20237;-71
2024/04/11 02:58:02;;;;;;;7.87;5.50;;;5.80;99.90;;;5.81;73.01;100385.34;5366543;26;20471;-71
2024/04/11 03:00:28;;;;;;;7.13;4.63;;;7.20;99.90;;;5.72;73.51;100383.03;5368385;26;20499;-73
2024/04/11 03:02:54;;;;;;;6.33;4.40;;;5.90;99.90;;;5.67;73.78;100389.31;5370852;26;20593;-70
2024/04/11 03:05:22;;;;;;;7.60;5.00;;;5.80;99.90;;;5.65;74.04;100383.31;5341091;26;20263;-69
2024/04/11 03:07:49;;;;;;;7.27;5.10;;;5.80;99.90;;;5.69;73.86;100390.13;5374909;26;20525;-73
2024/04/11 03:10:16;;;;;;;7.27;4.63;;;5.70;99.90;;;5.72;73.70;100392.63;5371398;26;20480;-73
2024/04/11 03:12:41;;;;;;;7.90;4.70;;;5.70;99.90;;;5.73;73.36;100392.56;5374656;26;20471;-70
2024/04/11 03:15:09;;;;;;;9.20;4.53;;;5.70;99.90;;;5.74;73.16;100396.03;5380574;26;20479;-71
2024/04/11 03:17:36;;;;;;;9.83;4.97;;;5.70;99.90;;;5.73;73.22;100386.50;5370881;26;20296;-74
2024/04/11 03:20:01;;;;;;;10.97;5.07;;;5.70;99.90;;;5.65;73.17;100396.34;5382425;26;20479;-73
2024/04/11 03:22:27;;;;;;;7.03;4.77;;;5.70;99.90;;;5.59;73.07;100389.59;5371330;26;20467;-74
2024/04/11 03:24:53;;;;;;;7.10;4.60;;;5.70;99.90;;;5.56;72.82;100400.09;5373071;26;20249;-73
2024/04/11 03:27:19;;;;;;;7.23;4.77;;;5.60;99.90;;;5.52;73.11;100391.53;5384380;26;20290;-73
2024/04/11 03:29:45;;;;;;;6.27;4.80;;;5.60;99.90;;;5.51;73.44;100394.19;5377856;26;20467;-74
2024/04/11 03:32:11;;;;;;;7.17;4.60;;;5.60;99.90;;;5.52;73.41;100395.91;5377652;26;20663;-74
2024/04/11 03:34:39;;;;;;;9.50;4.30;;;5.60;99.90;;;5.49;73.51;100391.66;5395569;26;20464;-73
2024/04/11 03:37:05;;;;;;;6.80;4.90;;;5.50;99.90;;;5.46;73.31;100396.13;5378079;26;20480;-72
2024/04/11 03:39:31;;;;;;;6.20;4.70;;;5.50;99.90;;;5.44;73.17;100397.91;5377837;26;20519;-73
2024/04/11 03:41:58;;;;;;;8.63;4.50;;;5.50;99.90;;;5.41;73.51;100393.63;5380955;26;20535;-74
2024/04/11 03:44:23;;;;;;;7.43;5.07;;;5.50;99.90;;;5.40;73.46;100401.53;5342801;26;21045;-74
2024/04/11 03:46:49;;;;;;;7.90;4.63;;;5.50;99.90;;;5.39;73.41;100402.41;5379944;26;20607;-73
2024/04/11 03:49:15;;;;;;;9.53;4.63;;;5.40;99.90;;;5.34;73.77;100400.81;5370322;26;20284;-72
2024/04/11 03:51:44;;;;;;;10.90;4.67;;;5.30;99.90;;;5.32;73.99;100409.56;5370048;26;20784;-71
2024/04/11 03:54:10;;;;;;;8.90;5.10;;;5.40;99.90;;;5.31;74.08;100415.69;5371742;26;20381;-73
2024/04/11 03:56:36;;;;;;;9.50;5.10;;;5.40;99.90;;;5.33;74.06;100409.53;5374893;26;20523;-74
2024/04/11 03:59:06;;;;;;;7.97;4.73;;;5.40;99.90;;;5.33;73.46;100416.50;5374350;26;20252;-74
2024/04/11 04:01:32;;;;;;;9.53;5.67;;;5.40;99.90;;;5.25;73.56;100414.13;5365333;26;20610;-72
2024/04/11 04:04:03;;;;;;;9.03;4.87;;;5.40;99.90;;;5.16;73.26;100413.56;5349505;26;20474;-74
2024/04/11 04:06:34;;;;;;;9.13;5.60;;;5.30;99.90;;;5.03;73.86;100410.50;5360219;26;20469;-73
2024/04/11 04:09:01;;;;;;;8.60;5.27;;;5.30;99.90;;;4.98;74.55;100410.66;5349682;26;20534;-73
2024/04/11 04:11:27;;;;;;;7.80;5.50;;;5.20;99.90;;;5.01;75.06;100414.88;5371084;26;20462;-73
2024/04/11 04:13:53;;;;;;;6.57;5.27;;;5.20;99.90;;;5.06;74.76;100411.25;5379160;26;20510;-69
2024/04/11 04:16:19;;;;;;;14.00;5.73;;;5.20;99.90;;;5.00;74.41;100406.22;5344498;26;20289;-73
2024/04/11 04:18:54;;;;;;;7.70;5.57;;;5.20;99.90;;;4.93;74.98;100402.13;5361319;26;20594;-73
2024/04/11 04:21:20;;;;;;;9.47;5.63;;;5.10;99.90;;;4.91;74.37;100409.13;5350753;26;20527;-74
2024/04/11 04:23:54;;;;;;;9.93;6.50;;;5.00;99.90;;;4.90;74.68;100404.81;5377547;26;20470;-73
2024/04/11 04:26:22;;;;;;;10.03;5.80;;;5.00;99.90;;;4.90;75.02;100411.78;5375106;26;20519;-74
2024/04/11 04:28:53;;;;;;;9.00;5.60;;;5.00;99.90;;;4.93;74.78;100406.47;5346674;26;20490;-74
2024/04/11 04:31:28;;;;;;;8.20;6.00;;;5.00;99.90;;;4.91;74.50;100411.72;5371570;26;20570;-73
2024/04/11 04:33:56;;;;;;;8.90;5.60;;;5.00;99.90;;;4.94;74.34;100421.19;5403240;26;20522;-73
2024/04/11 04:36:33;;;;;;;6.10;4.80;;;5.00;99.90;;;4.91;74.63;100418.69;5366054;26;20471;-72
2024/04/11 04:39:00;;;;;;;9.80;5.60;;;5.00;99.90;;;4.88;74.63;100417.88;5378676;26;20807;-72
2024/04/11 04:41:28;;;;;;;10.87;5.40;;;4.90;99.90;;;4.86;74.49;100427.50;5345956;26;20486;-74
2024/04/11 04:43:56;;;;;;;7.40;4.93;;;4.90;99.90;;;4.89;75.03;100429.16;5377377;26;20462;-71
2024/04/11 04:46:26;;;;;;;7.70;5.07;;;4.90;99.90;;;4.92;74.72;100431.66;5369458;26;20484;-72
2024/04/11 04:48:52;;;;;;;7.03;5.40;;;4.90;99.90;;;4.91;74.23;100439.50;5373870;26;20543;-74
2024/04/11 04:51:19;;;;;;;7.80;5.30;;;5.00;99.90;;;4.93;74.46;100438.56;5361888;26;20539;-74
2024/04/11 04:53:46;;;;;;;9.83;5.53;;;4.90;99.90;;;4.89;74.38;100436.97;5370621;26;20240;-72
2024/04/11 04:56:17;;;;;;;8.00;5.43;;;4.90;99.90;;;4.89;74.63;100442.19;5375728;26;20487;-73
2024/04/11 04:58:44;;;;;;;9.40;5.60;;;4.80;99.90;;;4.90;74.30;100443.03;5378755;26;20512;-73
2024/04/11 05:01:10;;;;;;;7.70;5.83;;;4.90;99.90;;;4.84;74.85;100446.66;5344163;26;20482;-73
2024/04/11 05:03:38;;;;;;;10.40;5.30;;;5.00;99.90;;;4.85;75.15;100443.16;5377056;26;20511;-73
2024/04/11 05:06:07;;;;;;;8.40;5.60;;;4.90;99.90;;;4.78;75.63;100452.03;5335246;26;20539;-72
2024/04/11 05:08:34;;;;;;;9.10;5.50;;;5.00;99.90;;;4.63;76.62;100445.53;5369205;26;21591;-72
2024/04/11 05:11:10;;;;;;;10.63;5.93;;;5.00;99.90;;;4.62;77.30;100449.03;5379209;26;20534;-67
2024/04/11 05:13:43;;;;;;;7.20;5.67;;;4.90;99.90;;;4.81;77.26;100449.34;5370666;26;20473;-73
2024/04/11 05:16:12;;;;;;;9.43;5.97;;;4.90;99.90;;;5.41;77.44;100461.38;5368467;26;20538;-72
2024/04/11 05:18:39;;;;;;;9.33;6.13;;;5.00;99.90;;;6.47;77.34;100458.69;5379755;26;20486;-68
2024/04/11 05:21:26;;;;;;;9.87;5.80;;;5.40;99.90;;;7.25;74.63;100454.03;5368844;26;21200;-71
2024/04/11 05:23:56;;;;;;;11.33;5.23;;;5.90;99.90;;;7.62;72.44;100453.41;5371188;26;20477;-70
2024/04/11 05:26:24;;;;;;;7.30;4.63;;;6.40;99.90;;;7.86;67.54;100455.00;5372687;26;21414;-70
2024/04/11 05:28:56;;;;;;;6.90;5.10;;;6.70;99.90;;;8.31;65.62;100456.56;5386497;26;20469;-70
2024/04/11 05:31:28;;;;;;;10.17;4.70;;;7.20;99.90;;;8.92;62.28;100460.00;5340810;26;20496;-69
2024/04/11 05:33:59;;;;;;;7.70;5.20;;;7.70;99.90;;;9.72;59.72;100459.66;5347265;26;20535;-71
2024/04/11 05:36:25;;;;;;;6.53;4.20;;;8.20;99.90;;;10.78;55.94;100464.72;5368887;26;20491;-64
2024/04/11 05:38:54;;;;;;;6.97;4.37;;;8.80;99.90;;;11.74;53.72;100461.13;5354957;26;20582;-70
2024/04/11 05:41:20;;;;;;;9.63;4.53;;;9.30;99.90;;;12.72;51.64;100460.56;5375021;26;20243;-71
2024/04/11 05:43:49;;;;;;;7.57;4.63;;;9.90;99.90;;;13.65;48.90;100465.16;5382457;26;20527;-72
2024/04/11 05:46:19;;;;;;;7.47;5.03;;;10.50;99.90;;;14.21;47.10;100459.66;5335732;26;20488;-71
2024/04/11 05:48:47;;;;;;;13.30;5.27;;;11.10;99.90;;;14.47;45.45;100459.66;5374060;26;20589;-70
2024/04/11 05:51:14;;;;;;;10.20;5.07;;;11.80;99.90;;;14.27;45.69;100455.75;5344288;26;20651;-71
2024/04/11 05:53:41;;;;;;;7.60;4.53;;;12.00;99.90;;;14.04;46.29;100458.16;5372519;26;20989;-70
2024/04/11 05:56:12;;;;;;;6.87;4.67;;;12.20;99.90;;;13.78;46.59;100461.72;5382749;26;20566;-69
2024/04/11 05:58:39;;;;;;;9.70;5.27;;;12.40;99.90;;;13.73;46.67;100463.81;5381731;26;20545;-70
2024/04/11 06:01:15;;;;;;;7.97;5.23;;;12.50;99.90;;;13.49;47.02;100479.47;5379056;26;20538;-72
2024/04/11 06:03:51;;;;;;;10.60;5.87;;;12.60;99.90;;;13.37;47.44;100470.56;5370219;26;20478;-71
2024/04/11 06:06:19;;;;;;;9.33;5.93;;;12.50;99.90;;;13.39;47.44;100469.50;5393089;26;20480;-69
2024/04/11 06:08:46;;;;;;;11.03;6.13;;;12.60;99.90;;;12.96;47.62;100466.09;5376321;26;20564;-72
2024/04/11 06:11:14;;;;;;;9.13;6.17;;;12.60;99.90;;;11.75;51.05;100462.81;5349223;26;20486;-73
2024/04/11 06:13:41;;;;;;;12.90;6.50;;;12.30;99.90;;;11.53;50.84;100458.78;5365144;26;20571;-71
2024/04/11 06:16:06;;;;;;;12.70;6.70;;;12.10;99.90;;;11.59;51.54;100461.06;5372865;26;20543;-74
2024/04/11 06:18:36;;;;;;;12.03;6.30;;;11.90;99.90;;;11.88;50.94;100465.63;5369207;26;20743;-71
2024/04/11 06:21:06;;;;;;;13.23;6.03;;;11.90;99.90;;;12.22;51.18;100462.69;5344690;26;20279;-72
2024/04/11 06:23:32;;;;;;;10.23;5.70;;;12.00;99.90;;;12.64;50.24;100461.03;5347034;26;20944;-70
2024/04/11 06:25:58;;;;;;;8.40;5.43;;;12.20;99.90;;;12.79;49.27;100461.00;5345749;26;20528;-72
2024/04/11 06:28:24;;;;;;;10.10;5.17;;;12.40;99.90;;;12.92;48.91;100462.78;5366010;26;20550;-72
2024/04/11 06:30:54;;;;;;;8.40;5.20;;;12.80;99.90;;;12.98;48.65;100464.19;5363537;26;20253;-71
2024/04/11 06:33:22;;;;;;;10.37;5.37;;;12.70;99.90;;;13.08;48.99;100459.16;5362349;26;20471;-72
2024/04/11 06:35:51;;;;;;;11.60;5.20;;;12.80;99.90;;;12.89;49.92;100460.34;5383862;26;20478;-73
2024/04/11 06:38:20;;;;;;;9.70;6.00;;;12.80;99.90;;;12.97;49.39;100459.88;5376321;26;20239;-73
2024/04/11 06:40:48;;;;;;;7.40;5.00;;;12.80;99.90;;;13.20;49.66;100459.22;5368905;26;20482;-70
2024/04/11 06:43:16;;;;;;;8.83;5.57;;;12.90;99.90;;;13.43;49.50;100459.59;5372543;26;20520;-69
2024/04/11 06:45:45;;;;;;;16.27;6.70;;;13.00;99.90;;;13.83;49.02;100460.44;5385608;26;20562;-72
2024/04/11 06:48:18;;;;;;;21.13;8.70;;;13.10;99.90;;;14.01;47.43;100453.09;5380914;26;20466;-71
2024/04/11 06:50:45;;;;;;;15.97;7.43;;;13.40;99.90;;;14.35;47.52;100464.84;5375555;26;20488;-64
2024/04/11 06:53:11;;;;;;;16.87;6.83;;;13.60;99.90;;;14.63;47.80;100459.47;5372151;26;20579;-71
2024/04/11 06:55:37;;;;;;;14.97;5.87;;;13.80;99.90;;;14.78;46.56;100458.41;5343780;26;21029;-70
2024/04/11 06:58:03;;;;;;;15.50;5.50;;;14.00;99.90;;;15.02;45.76;100459.31;5391239;26;20295;-71
2024/04/11 07:00:38;;;;;;;9.30;5.43;;;14.20;99.90;;;14.87;45.52;100470.13;5371391;26;20249;-73
2024/04/11 07:03:16;;;;;;;11.23;5.80;;;14.40;99.90;;;14.22;46.61;100461.38;5369916;26;20689;-72
2024/04/11 07:06:09;;;;;;;11.67;6.50;;;14.30;99.90;;;12.32;52.09;100465.59;5345311;26;20479;-72
2024/04/11 07:08:37;;;;;;;13.73;7.00;;;13.70;99.90;;;12.85;51.33;100466.75;5417086;26;20554;-72
2024/04/11 07:11:23;;;;;;;17.30;6.90;;;13.50;99.90;;;13.40;50.77;100460.66;5378104;26;20479;-73
2024/04/11 07:13:50;;;;;;;13.20;6.70;;;13.60;99.90;;;13.78;49.71;100457.28;5358259;26;20521;-69
2024/04/11 07:16:17;;;;;;;11.13;6.97;;;14.60;99.90;;;14.17;49.52;100450.25;5378503;26;20521;-71
2024/04/11 07:18:49;;;;;;;13.50;6.93;;;14.00;99.90;;;14.78;47.91;100447.81;5370179;26;20531;-71
2024/04/11 07:21:19;;;;;;;10.00;6.30;;;14.20;99.90;;;15.35;47.06;100441.91;5338033;26;20482;-69
2024/04/11 07:23:53;;;;;;;14.13;6.23;;;14.60;99.90;;;15.71;45.79;100446.34;5328776;26;20470;-71
2024/04/11 07:26:23;;;;;;;10.27;6.17;;;14.90;99.90;;;16.15;45.96;100450.09;5400089;26;20577;-71
2024/04/11 07:28:50;;;;;;;13.80;6.67;;;15.20;99.90;;;16.66;45.06;100447.00;5366711;26;20468;-71
2024/04/11 07:31:21;;;;;;;11.70;6.50;;;15.60;99.90;;;17.00;44.01;100462.09;5381490;26;20483;-72
2024/04/11 07:33:48;;;;;;;9.73;5.47;;;15.90;99.90;;;17.25;44.02;100466.28;5375022;26;20498;-68
2024/04/11 07:36:16;;;;;;;8.63;5.90;;;16.20;99.90;;;17.41;42.62;100466.72;5365107;26;20490;-71
2024/04/11 07:38:43;;;;;;;12.03;5.93;;;16.50;99.90;;;17.53;42.39;100467.53;5376272;26;20565;-68
2024/04/11 07:41:18;;;;;;;9.67;5.60;;;16.70;99.90;;;17.69;42.01;100467.09;5369966;26;20542;-71
2024/04/11 07:43:51;;;;;;;8.87;5.43;;;16.90;99.90;;;17.88;42.34;100466.47;5370486;26;20472;-70
2024/04/11 07:46:22;;;;;;;7.67;5.40;;;17.10;99.90;;;18.03;41.92;100466.00;5371716;26;20531;-73
2024/04/11 07:48:48;;;;;;;8.13;5.10;;;17.30;99.90;;;18.01;41.59;100467.94;5378757;26;20474;-71
2024/04/11 07:51:23;;;;;;;9.77;5.30;;;17.40;99.90;;;18.26;42.07;100472.03;5370113;26;20496;-67
2024/04/11 07:53:50;;;;;;;7.73;5.13;;;17.50;99.90;;;18.63;41.24;100468.00;5369603;26;20486;-69
2024/04/11 07:56:19;;;;;;;6.83;5.20;;;18.80;99.90;;;18.83;40.64;100475.16;5375844;26;20546;-70
2024/04/11 07:58:49;;;;;;;8.30;4.53;;;17.90;99.90;;;19.04;39.47;100472.44;5377178;26;20529;-71
2024/04/11 08:01:16;;;;;;;9.83;3.67;;;18.10;99.90;;;19.01;39.41;100470.03;5373752;26;20477;-70
2024/04/11 08:03:45;;;;;;;7.90;4.03;;;18.20;99.90;;;19.01;39.68;100461.19;5378007;26;20898;-71
2024/04/11 08:06:11;;;;;;;6.40;3.97;;;18.30;99.90;;;18.61;39.66;100459.34;5344392;26;20476;-70
2024/04/11 08:08:40;;;;;;;6.97;3.90;;;18.30;99.90;;;18.86;39.90;100469.56;5365190;26;20531;-72
2024/04/11 08:11:10;;;;;;;6.13;4.40;;;18.30;99.90;;;19.05;39.83;100466.13;5372922;26;20284;-71
2024/04/11 08:13:37;;;;;;;5.20;3.83;;;18.30;99.90;;;19.15;39.66;100464.31;5365672;26;21359;-71
2024/04/11 08:16:07;;;;;;;6.37;3.70;;;18.40;99.90;;;19.29;38.86;100463.06;5373441;26;20486;-70
2024/04/11 08:18:34;;;;;;;6.33;3.67;;;18.50;99.90;;;19.46;39.47;100464.22;5347153;26;20572;-65
2024/04/11 08:20:59;;;;;;;6.20;3.33;;;18.60;99.90;;;19.71;39.03;100475.38;5362359;26;20476;-70
2024/04/11 08:23:25;;;;;;;5.73;3.63;;;18.70;99.90;;;20.08;38.54;100480.81;5377757;26;20544;-72
2024/04/11 08:25:53;;;;;;;6.67;3.30;;;18.90;99.90;;;20.38;36.98;100483.28;5362287;26;20299;-72
2024/04/11 08:28:19;;;;;;;6.13;3.30;;;20.00;99.90;;;20.65;35.22;100487.03;5368315;26;20271;-71
2024/04/11 08:30:46;;;;;;;4.80;2.77;;;19.40;99.90;;;20.77;34.40;100491.19;5339822;26;20482;-72
2024/04/11 08:33:12;;;;;;;5.70;2.70;;;20.30;99.90;;;21.07;33.26;100502.63;5370236;26;20524;-72
2024/04/11 08:35:38;;;;;;;7.50;2.90;;;19.80;99.90;;;21.09;33.68;100497.97;5375641;26;20472;-72
2024/04/11 08:38:06;;;;;;;5.77;3.27;;;20.00;99.90;;;21.24;33.67;100500.97;5372389;26;20472;-72
2024/04/11 08:40:39;;;;;;;6.23;3.13;;;20.10;99.90;;;21.48;33.46;100500.44;5364980;26;20490;-72
2024/04/11 08:43:05;;;;;;;7.57;3.03;;;20.30;99.90;;;21.45;32.27;100514.09;5343763;26;20518;-71
2024/04/11 08:45:34;;;;;;;6.43;2.87;;;20.50;99.90;;;21.19;32.81;100504.09;5373899;26;20470;-73
2024/04/11 08:48:01;;;;;;;6.90;3.10;;;20.50;99.90;;;20.33;34.03;100512.25;5374850;26;20462;-71
2024/04/11 08:50:27;;;;;;;5.13;2.90;;;20.20;99.90;;;20.35;34.13;100502.25;5360097;26;20474;-71
2024/04/11 08:52:55;;;;;;;6.47;3.10;;;20.00;99.90;;;20.35;34.32;100512.94;5366197;26;20474;-65
2024/04/11 08:55:22;;;;;;;5.60;2.70;;;19.80;99.90;;;20.52;33.80;100503.41;5330913;26;20490;-71
2024/04/11 08:57:50;;;;;;;5.13;2.60;;;19.80;99.90;;;20.66;33.98;100504.75;5379001;26;20518;-72
2024/04/11 09:00:21;;;;;;;4.30;2.50;;;19.80;99.90;;;20.63;32.11;100506.88;5370445;26;20586;-69
2024/04/11 09:02:48;;;;;;;5.80;2.90;;;19.80;99.90;;;20.63;32.97;100512.22;5367883;26;21065;-72
2024/04/11 09:05:14;;;;;;;5.13;2.60;;;21.10;99.90;;;20.71;32.53;100507.84;5403587;26;20522;-70
2024/04/11 09:07:46;;;;;;;8.30;2.90;;;19.90;99.90;;;20.89;32.83;100515.06;5342797;26;20485;-70
2024/04/11 09:10:13;;;;;;;5.23;2.77;;;20.00;99.90;;;20.87;33.48;100517.03;5342224;26;20467;-68
2024/04/11 09:12:46;;;;;;;4.90;2.80;;;20.00;99.90;;;20.67;32.60;100519.78;5379757;26;20534;-69
2024/04/11 09:15:15;;;;;;;6.67;2.70;;;20.00;99.90;;;20.69;32.97;100515.13;5372920;26;20517;-68
2024/04/11 09:17:46;;;;;;;5.13;2.70;;;19.90;99.90;;;20.45;33.12;100525.41;5354859;26;20491;-71
2024/04/11 09:20:15;;;;;;;6.17;2.63;;;19.90;99.90;;;19.99;33.94;100527.03;5370069;26;20470;-72
2024/04/11 09:22:50;;;;;;;6.80;3.10;;;19.60;99.90;;;20.03;35.52;100525.75;5366941;26;20539;-71
2024/04/11 09:25:22;;;;;;;4.70;3.10;;;20.30;99.90;;;20.05;35.79;100531.78;5374673;26;20539;-71
2024/04/11 09:27:58;;;;;;;6.17;3.20;;;19.40;99.90;;;19.77;34.92;100523.66;5368212;26;20480;-72
2024/04/11 09:30:34;;;;;;;5.67;2.97;;;19.30;99.90;;;19.72;35.55;100528.53;5361948;26;20525;-71
2024/04/11 09:33:04;;;;;;;4.53;2.53;;;19.20;99.90;;;19.62;36.02;100523.19;5366254;26;20458;-67
2024/04/11 09:35:40;;;;;;;4.50;2.50;;;20.10;99.90;;;19.38;35.04;100522.69;5345211;26;20523;-71
2024/04/11 09:38:12;;;;;;;5.53;2.80;;;18.90;99.90;;;19.28;35.01;100524.50;5371781;26;20462;-69
2024/04/11 09:40:44;;;;;;;6.73;2.70;;;18.80;99.90;;;19.03;35.81;100526.66;5345445;26;20593;-71
2024/04/11 09:43:15;;;;;;;4.20;2.53;;;18.70;99.90;;;18.83;34.79;100519.59;5382558;26;20462;-69
2024/04/11 09:45:50;;;;;;;4.00;2.23;;;18.50;99.90;;;18.85;35.33;100523.81;5378600;26;20542;-70
2024/04/11 09:48:21;;;;;;;5.03;2.50;;;18.40;99.90;;;18.52;35.35;100528.34;5362456;26;20553;-71
2024/04/11 09:50:52;;;;;;;6.03;2.30;;;18.20;99.90;;;18.21;36.12;100534.56;5390971;26;20468;-71
2024/04/11 09:53:27;;;;;;;7.87;2.70;;;18.00;99.90;;;18.59;36.05;100515.34;5389052;26;20472;-72
2024/04/11 09:55:59;;;;;;;7.27;2.47;;;19.40;99.90;;;18.72;34.80;100509.81;5367762;26;20524;-71
2024/04/11 09:58:30;;;;;;;7.00;2.50;;;18.00;99.90;;;19.21;34.82;100511.72;5407713;26;20493;-73
2024/04/11 10:01:04;;;;;;;7.27;2.50;;;18.20;99.90;;;19.32;34.64;100510.75;5381352;26;20517;-70
2024/04/11 10:03:39;;;;;;;8.10;2.40;;;18.30;99.90;;;18.87;34.35;100513.00;5367897;26;20466;-71
2024/04/11 10:06:16;;;;;;;4.00;2.17;;;18.30;99.90;;;18.86;35.09;100501.50;5374826;26;20469;-70
2024/04/11 10:08:47;;;;;;;4.40;2.30;;;18.30;99.90;;;18.91;35.00;100503.75;5371674;26;21048;-72
2024/04/11 10:11:15;;;;;;;4.30;2.43;;;18.90;99.90;;;19.23;34.97;100503.59;5372395;26;20535;-71
2024/04/11 10:13:49;;;;;;;4.60;2.40;;;18.40;99.90;;;19.45;34.94;100498.03;5333700;26;20476;-68
2024/04/11 10:16:22;;;;;;;4.57;2.13;;;18.60;99.90;;;19.22;34.30;100501.91;5374011;26;20466;-72
2024/04/11 10:19:07;;;;;;;8.53;2.80;;;18.60;99.90;;;19.39;34.70;100511.91;5377186;26;20487;-67
2024/04/11 10:21:38;;;;;;;6.13;2.67;;;18.70;99.90;;;19.22;33.75;100509.91;5368451;26;20468;-67
2024/04/11 10:24:23;;;;;;;5.00;2.60;;;18.70;99.90;;;19.43;34.20;100505.31;5356907;26;20495;-72